This is the latest recevied weather packets stored in our database for station/object K1ADK-1. If no packets are shown the sender has not sent any weather packets the latest 10 day(s).
| Time | Temp. | Humidity | Pressure | Rain* | Wind** | Luminosity | Snow |
|---|---|---|---|---|---|---|---|
| 1777842916 | 14.44° C | 30% | 1009.7 hPa | 0 mm | - | 434 W/m² | - |
| 1777832116 | 13.33° C | 36% | 1010.4 hPa | 0 mm | - | 840 W/m² | - |
| 1777830916 | 12.78° C | 35% | 1010.1 hPa | 0 mm | - | 921 W/m² | - |
| 1777829716 | 12.22° C | 35% | 1010.1 hPa | 0 mm | - | 983 W/m² | - |
| 1777824316 | 10° C | 47% | 1010.7 hPa | 0 mm | - | 179 W/m² | - |
| 1777821316 | 10° C | 47% | 1010.9 hPa | 0 mm | - | 395 W/m² | - |
| 1777820716 | 10.56° C | 46% | 1010.7 hPa | 0 mm | - | 213 W/m² | - |
| 1777813515 | 8.33° C | 57% | 1010.6 hPa | 0 mm | - | 472 W/m² | - |
| 1777812936 | 8.33° C | 57% | 1010.5 hPa | 0 mm | - | 444 W/m² | - |
| 1777808716 | 6.67° C | 63% | 1010.6 hPa | 0 mm | - | 130 W/m² | - |
| 1777808115 | 6.67° C | 63% | 1010.5 hPa | 0 mm | - | 99 W/m² | - |
| 1777807515 | 6.67° C | 62% | 1010.3 hPa | 0 mm | - | 95 W/m² | - |
| 1777799715 | 6.67° C | 58% | 1009.4 hPa | 0 mm | - | 0 W/m² | - |
| 1777789517 | 8.89° C | 52% | 1009.8 hPa | 0 mm | - | 0 W/m² | - |
| 1777784717 | 9.44° C | 53% | 1010.5 hPa | 0 mm | - | 0 W/m² | - |
| 1777783517 | 9.44° C | 55% | 1010.7 hPa | 0 mm | - | 0 W/m² | - |
| 1777782317 | 10° C | 55% | 1010.8 hPa | 0 mm | - | 0 W/m² | - |
| 1777776317 | 10° C | 67% | 1010.7 hPa | 0 mm | - | 0 W/m² | - |
| 1777773917 | 10° C | 78% | 1011 hPa | 0 mm | - | 0 W/m² | - |
| 1777773317 | 10° C | 78% | 1010.7 hPa | 0 mm | - | 0 W/m² | - |
| 1777772717 | 10° C | 78% | 1010.7 hPa | 0 mm | - | 0 W/m² | - |
| 1777768516 | 11.67° C | 70% | 1010.2 hPa | 0 mm | - | 0 W/m² | - |
| 1777761316 | 13.89° C | 59% | 1009.9 hPa | 0 mm | - | 95 W/m² | - |
| 1777756516 | 14.44° C | 59% | 1009.7 hPa | 0 mm | - | 224 W/m² | - |
| 1777755336 | 15° C | 59% | 1009.7 hPa | 0 mm | - | 470 W/m² | - |
* Rain latest hour (hover to see other rain measurements)
** Current wind speed in m/s (hover to see current wind gust speed)